METAR AND TAF INFORMATION
METAR FOR LFRS
ADDS - METARS form results

(2113 UTC 04 April 2020)
Data provider http://aviationweather.gov/metar/data/
 
METAR text: LFRS 042100Z AUTO 10009KT CAVOK 13/03 Q1015 NOSIG
Conditions at: LFRS (NANTES/CHATEAU B, FR) observed 2100 UTC 04 April 2020
Temperature: 13.0°C (55°F)
Dewpoint: 3.0°C (37°F) [RH = 51%]
Pressure (altimeter): 29.97 inches Hg (1015.0 mb)
Winds: from the E (100 degrees) at 10 MPH (9 knots; 4.6 m/s)
Visibility: 6 or more miles (10+ km)
Ceiling: ceiling and visibility are OK
Clouds: unknown
Weather: no significant weather observed at this time

METAR text: LFRS 042030Z AUTO 10008KT CAVOK 13/03 Q1015 NOSIG
Conditions at: LFRS (NANTES/CHATEAU B, FR) observed 2030 UTC 04 April 2020
Temperature: 13.0°C (55°F)
Dewpoint: 3.0°C (37°F) [RH = 51%]
Pressure (altimeter): 29.97 inches Hg (1015.0 mb)
Winds: from the E (100 degrees) at 9 MPH (8 knots; 4.1 m/s)
Visibility: 6 or more miles (10+ km)
Ceiling: ceiling and visibility are OK
Clouds: unknown
Weather: no significant weather observed at this time

Forecast for: LFRS (NANTES/CHATEAU B, FR)
Text: TAF LFRS 041700Z 0418/0524 12010KT CAVOK
Forecast period: 1800 UTC 04 April 2020 to 1000 UTC 05 April 2020
Forecast type: FROM: standard forecast or significant change
Winds: from the ESE (120 degrees) at 12 MPH (10 knots; 5.1 m/s)
Visibility: 6 or more miles 10+ km)
Ceiling: unknown
Clouds: missing
Weather: NSW  (no significant weather)
Text: BECMG 0510/0512 18015G25KT
Forecast period: 1000 to 1700 UTC 05 April 2020
Forecast type: BECOMING: Conditions expected to become as follows by 1200 UTC 05 April 2020
Winds: from the S (180 degrees) at 17 MPH (15 knots; 7.7 m/s)
gusting to 29 MPH (25 knots; 12.9 m/s)
Visibility: 6 or more miles 10+ km)
Ceiling: unknown
Clouds: missing
Weather: NSW  (no significant weather)
Text: BECMG 0517/0519 18010KT
Forecast period: 1700 UTC 05 April 2020 to 0000 UTC 06 April 2020
Forecast type: BECOMING: Conditions expected to become as follows by 1900 UTC 05 April 2020
Winds: from the S (180 degrees) at 12 MPH (10 knots; 5.1 m/s)
Visibility: 6 or more miles 10+ km)
Ceiling: unknown
Clouds: missing
Weather: NSW  (no significant weather)

 AIRPORT MAP

 RUNWAY INFORMATION
Runway 03 Runway length 9514 ft Runway width 148 ft
Runway elevation 73 ft Runway displaced threshold 0 ft Runway heading 28
Runway 21 Runway length 9514 ft Runway width 148 ft
Runway elevation 86 ft Runway displaced threshold 694 ft Runway heading 208

 AIRPORT FREQUENCIES
Type APP Name APP Frequency 130.275 MHZ
Type ATIS Name ATIS Frequency 126.925 MHZ
Type GND Name GND Frequency 121.875 MHZ
Type INFO Name INFO Frequency 129.875 MHZ
Type TWR Name TWR Frequency 118.65 MHZ

 AIRPORT NEAR NAVIGATION AIDS
Type NDB Name Nantes Frequency 369 KHZ
Type VOR-DME Name Nantes Frequency 115500 KHZ



Powered by Virtual Airlines Manager [v2.6.2]